Time;durP1;ratioP1;P1;durP2;ratioP2;P2;SDS_P1;SDS_P2;PMS_P1;PMS_P2;Temp;Humidity;BMP_temperature;BMP_pressure;BME280_temperature;BME280_humidity;BME280_pressure;Samples;Min_cycle;Max_cycle;Signal;HPM_P1;HPM_P2
2023/12/31 00:00:05;;;;;;;7.05;3.40;;;8.00;99.90;;;;;;4994949;28;20050;-71
2023/12/31 00:02:30;;;;;;;5.13;3.17;;;8.00;99.90;;;;;;4982504;28;20045;-71
2023/12/31 00:04:56;;;;;;;5.47;3.40;;;7.90;99.90;;;;;;4986057;28;20047;-72
2023/12/31 00:07:22;;;;;;;5.80;3.05;;;8.00;99.90;;;;;;4993107;28;20472;-71
2023/12/31 00:09:48;;;;;;;7.78;3.70;;;8.00;99.90;;;;;;4998495;28;20057;-71
2023/12/31 00:12:14;;;;;;;5.40;3.22;;;8.00;99.90;;;;;;4999981;28;20111;-71
2023/12/31 00:14:39;;;;;;;5.45;3.30;;;8.10;99.90;;;;;;4997884;28;20050;-71
2023/12/31 00:17:05;;;;;;;4.38;3.08;;;8.10;99.90;;;;;;4988943;28;20083;-71
2023/12/31 00:19:31;;;;;;;6.47;3.30;;;8.10;99.90;;;;;;4998849;28;20068;-71
2023/12/31 00:21:56;;;;;;;5.18;3.10;;;8.10;99.90;;;;;;4996940;28;20350;-71
2023/12/31 00:24:22;;;;;;;4.55;3.30;;;8.10;99.90;;;;;;5001140;28;20393;-71
2023/12/31 00:26:48;;;;;;;6.57;3.05;;;8.10;99.90;;;;;;4999765;28;20530;-72
2023/12/31 00:29:14;;;;;;;4.50;3.38;;;8.10;99.90;;;;;;4993599;28;20042;-71
2023/12/31 00:31:39;;;;;;;4.63;3.17;;;8.20;99.90;;;;;;5000324;28;20545;-71
2023/12/31 00:34:05;;;;;;;4.93;2.90;;;8.20;99.90;;;;;;4986863;28;20049;-71
2023/12/31 00:36:31;;;;;;;4.78;2.92;;;8.20;99.90;;;;;;5018748;28;20521;-71
2023/12/31 00:38:57;;;;;;;6.53;3.17;;;8.20;99.90;;;;;;4990035;28;20532;-71
2023/12/31 00:41:22;;;;;;;6.10;3.05;;;8.20;99.90;;;;;;4983636;28;20044;-71
2023/12/31 00:43:48;;;;;;;5.43;3.22;;;8.20;99.90;;;;;;4987574;28;20416;-71
2023/12/31 00:46:14;;;;;;;5.22;3.22;;;8.20;99.90;;;;;;4994824;28;20116;-71
2023/12/31 00:48:40;;;;;;;5.22;3.17;;;8.20;99.90;;;;;;4995049;28;20066;-71
2023/12/31 00:51:05;;;;;;;4.20;2.67;;;8.20;99.90;;;;;;5004704;28;20038;-71
2023/12/31 00:53:32;;;;;;;6.47;3.20;;;8.20;99.90;;;;;;4996059;28;20034;-71
2023/12/31 00:55:58;;;;;;;5.32;3.13;;;8.20;99.90;;;;;;5000013;28;20045;-71
2023/12/31 00:58:24;;;;;;;5.10;3.03;;;8.10;99.90;;;;;;4986722;28;20045;-71
2023/12/31 01:00:50;;;;;;;7.47;3.20;;;8.10;99.90;;;;;;4999314;28;20041;-71
2023/12/31 01:03:15;;;;;;;4.32;2.95;;;8.10;99.90;;;;;;4998803;28;20831;-71
2023/12/31 01:05:41;;;;;;;4.57;3.10;;;8.10;99.90;;;;;;4987261;28;20034;-71
2023/12/31 01:08:08;;;;;;;4.57;3.00;;;8.10;99.90;;;;;;4996889;28;20050;-71
2023/12/31 01:10:34;;;;;;;6.38;3.30;;;8.00;99.90;;;;;;5001476;28;20146;-71
2023/12/31 01:12:59;;;;;;;5.50;3.13;;;8.00;99.90;;;;;;4997258;28;20583;-71
2023/12/31 01:15:25;;;;;;;4.65;3.00;;;8.00;99.90;;;;;;4995813;28;20045;-71
2023/12/31 01:17:51;;;;;;;6.30;2.75;;;8.00;99.90;;;;;;4983988;28;20095;-71
2023/12/31 01:20:17;;;;;;;5.88;3.13;;;8.00;99.90;;;;;;4994716;28;20404;-72
2023/12/31 01:22:42;;;;;;;5.10;2.70;;;8.00;99.90;;;;;;4991578;28;20034;-71
2023/12/31 01:25:08;;;;;;;3.95;2.60;;;8.00;99.90;;;;;;4983460;28;20332;-71
2023/12/31 01:27:34;;;;;;;5.72;2.67;;;7.90;99.90;;;;;;4986739;28;20363;-71
2023/12/31 01:30:00;;;;;;;5.95;2.88;;;7.90;99.90;;;;;;4988869;28;20533;-71
2023/12/31 01:32:27;;;;;;;3.90;2.55;;;7.90;99.90;;;;;;5000169;28;20057;-71
2023/12/31 01:34:57;;;;;;;3.65;2.50;;;7.80;99.90;;;;;;5012754;28;20132;-71
2023/12/31 01:37:23;;;;;;;3.92;2.58;;;7.80;99.90;;;;;;4983646;28;20086;-71
2023/12/31 01:39:49;;;;;;;5.00;2.88;;;7.70;99.90;;;;;;4996238;28;20119;-71
2023/12/31 01:42:14;;;;;;;4.03;2.70;;;7.80;99.90;;;;;;4983611;28;20053;-71
2023/12/31 01:44:40;;;;;;;3.78;2.67;;;7.80;99.90;;;;;;4994801;28;20081;-71
2023/12/31 01:47:06;;;;;;;4.68;2.80;;;7.70;99.90;;;;;;5000276;28;20053;-71
2023/12/31 01:49:33;;;;;;;4.03;2.60;;;7.70;99.90;;;;;;4998064;28;20169;-71
2023/12/31 01:51:59;;;;;;;3.00;2.50;;;7.70;99.90;;;;;;4984941;28;20405;-71
2023/12/31 01:54:26;;;;;;;3.20;2.45;;;7.80;99.90;;;;;;4995805;28;20077;-71
2023/12/31 01:56:53;;;;;;;4.80;2.40;;;7.70;99.90;;;;;;4992846;28;20049;-71
2023/12/31 01:59:20;;;;;;;5.43;2.60;;;7.70;99.90;;;;;;4983352;28;20305;-71
2023/12/31 02:01:48;;;;;;;6.07;2.50;;;7.80;99.90;;;;;;4981971;28;20034;-71
2023/12/31 02:04:15;;;;;;;3.63;2.22;;;7.70;99.90;;;;;;5004998;28;20042;-71
2023/12/31 02:06:41;;;;;;;4.45;2.72;;;7.70;99.90;;;;;;4988272;28;20038;-71
2023/12/31 02:09:08;;;;;;;4.38;2.70;;;7.80;99.90;;;;;;5002202;28;20443;-71
2023/12/31 02:11:35;;;;;;;4.82;2.50;;;7.80;99.90;;;;;;4991974;28;20038;-71
2023/12/31 02:14:01;;;;;;;3.30;2.42;;;7.80;99.90;;;;;;5000504;28;20046;-71
2023/12/31 02:16:27;;;;;;;3.55;2.50;;;7.80;99.90;;;;;;4998870;28;20111;-71
2023/12/31 02:18:53;;;;;;;4.40;2.50;;;7.90;99.90;;;;;;4997185;28;20046;-71
2023/12/31 02:21:20;;;;;;;3.58;2.10;;;7.80;99.90;;;;;;4992245;28;20052;-71
2023/12/31 02:23:46;;;;;;;4.63;2.47;;;7.90;99.90;;;;;;4995376;28;20050;-71
2023/12/31 02:26:12;;;;;;;3.38;2.20;;;7.90;99.90;;;;;;4994242;28;20046;-71
2023/12/31 02:28:39;;;;;;;3.85;2.03;;;7.90;99.90;;;;;;5029170;28;20040;-71
2023/12/31 02:31:05;;;;;;;3.13;2.45;;;7.90;99.90;;;;;;4979297;28;20045;-71
2023/12/31 02:33:32;;;;;;;5.88;2.40;;;7.90;99.90;;;;;;4985589;28;20041;-71
2023/12/31 02:35:58;;;;;;;3.20;2.15;;;7.80;99.90;;;;;;5011165;28;20058;-71
2023/12/31 02:38:23;;;;;;;5.18;2.60;;;7.90;99.90;;;;;;5013153;28;20045;-71
2023/12/31 02:40:49;;;;;;;3.53;2.60;;;7.80;99.90;;;;;;4995384;28;20266;-71
2023/12/31 02:43:15;;;;;;;5.10;2.30;;;7.90;99.90;;;;;;4998635;28;20164;-71
2023/12/31 02:45:41;;;;;;;3.08;2.45;;;7.90;99.90;;;;;;4987035;28;20065;-71
2023/12/31 02:48:07;;;;;;;4.07;2.25;;;7.80;99.90;;;;;;4997577;28;20040;-71
2023/12/31 02:50:33;;;;;;;3.38;2.10;;;7.80;99.90;;;;;;5001223;28;20083;-71
2023/12/31 02:52:59;;;;;;;3.28;2.50;;;7.90;99.90;;;;;;4981520;28;20301;-72
2023/12/31 02:55:25;;;;;;;3.35;2.30;;;7.80;99.90;;;;;;4984409;28;20132;-71
2023/12/31 02:57:50;;;;;;;2.85;2.20;;;7.80;99.90;;;;;;4987366;28;20050;-71
2023/12/31 03:00:16;;;;;;;4.75;2.20;;;7.90;99.90;;;;;;4987418;28;20082;-71
2023/12/31 03:02:42;;;;;;;3.10;1.90;;;7.90;99.90;;;;;;4984168;28;20053;-71
2023/12/31 03:05:08;;;;;;;4.18;2.40;;;7.90;99.90;;;;;;4997243;28;20072;-71
2023/12/31 03:07:34;;;;;;;3.80;2.40;;;7.90;99.90;;;;;;4995691;28;20045;-71
2023/12/31 03:10:00;;;;;;;4.03;2.08;;;7.80;99.90;;;;;;4992138;28;20050;-71
2023/12/31 03:12:26;;;;;;;4.25;2.55;;;7.90;99.90;;;;;;4983092;28;20042;-71
2023/12/31 03:14:52;;;;;;;2.95;2.00;;;7.80;99.90;;;;;;4979306;28;20105;-71
2023/12/31 03:17:18;;;;;;;3.33;2.20;;;7.80;99.90;;;;;;4995212;28;20050;-72
2023/12/31 03:19:43;;;;;;;2.70;2.10;;;7.80;99.90;;;;;;4996918;28;20129;-71
2023/12/31 03:22:09;;;;;;;3.40;2.00;;;7.70;99.90;;;;;;4993185;28;20124;-71
2023/12/31 03:24:35;;;;;;;3.42;2.20;;;7.70;99.90;;;;;;4997081;28;20080;-71
2023/12/31 03:27:01;;;;;;;6.78;2.70;;;7.60;99.90;;;;;;4996771;28;20045;-71
2023/12/31 03:29:26;;;;;;;3.08;2.20;;;7.60;99.90;;;;;;5000094;28;20057;-71
2023/12/31 03:31:53;;;;;;;5.55;2.80;;;7.60;99.90;;;;;;5014266;28;20343;-71
2023/12/31 03:34:19;;;;;;;3.53;2.13;;;7.60;99.90;;;;;;5007100;28;20042;-71
2023/12/31 03:36:46;;;;;;;3.63;2.47;;;7.60;99.90;;;;;;4999620;28;20064;-71
2023/12/31 03:39:14;;;;;;;3.40;2.25;;;7.60;99.90;;;;;;5000200;28;20061;-71
2023/12/31 03:41:40;;;;;;;3.78;2.30;;;7.60;99.90;;;;;;5003957;28;20513;-71
2023/12/31 03:44:05;;;;;;;3.13;2.33;;;7.60;99.90;;;;;;5002552;28;20045;-71
2023/12/31 03:46:31;;;;;;;4.90;2.53;;;7.60;99.90;;;;;;4996407;28;20038;-71
2023/12/31 03:48:57;;;;;;;3.25;2.42;;;7.60;99.90;;;;;;5014542;28;20499;-71
2023/12/31 03:51:22;;;;;;;3.67;2.33;;;7.60;99.90;;;;;;4981296;28;20042;-71
2023/12/31 03:53:48;;;;;;;4.93;2.10;;;7.60;99.90;;;;;;4984841;28;20041;-71
2023/12/31 03:56:14;;;;;;;3.40;2.47;;;7.60;99.90;;;;;;4996241;28;20490;-71
2023/12/31 03:58:40;;;;;;;3.30;2.33;;;7.60;99.90;;;;;;5004728;28;20043;-71
2023/12/31 04:01:06;;;;;;;4.00;2.10;;;7.70;99.90;;;;;;4993601;28;20074;-71
2023/12/31 04:03:32;;;;;;;6.10;2.63;;;7.60;99.90;;;;;;5029642;28;20046;-71
2023/12/31 04:05:57;;;;;;;3.08;2.28;;;7.60;99.90;;;;;;4987843;28;20107;-71
2023/12/31 04:08:24;;;;;;;3.95;2.65;;;7.60;99.90;;;;;;4996301;28;20030;-71
2023/12/31 04:10:50;;;;;;;3.38;2.38;;;7.60;99.90;;;;;;4985334;28;20041;-71
2023/12/31 04:13:17;;;;;;;3.25;2.00;;;7.70;99.90;;;;;;4999509;28;20424;-71
2023/12/31 04:15:43;;;;;;;3.33;2.20;;;7.60;99.90;;;;;;4984194;28;20116;-72
2023/12/31 04:18:09;;;;;;;3.72;2.20;;;7.60;99.90;;;;;;5033315;28;20107;-71
2023/12/31 04:20:34;;;;;;;4.85;2.00;;;7.60;99.90;;;;;;4997589;28;20453;-71
2023/12/31 04:23:00;;;;;;;3.33;2.30;;;7.60;99.90;;;;;;5015895;28;20046;-71
2023/12/31 04:25:26;;;;;;;3.58;2.20;;;7.60;99.90;;;;;;4998640;28;20096;-71
2023/12/31 04:27:52;;;;;;;3.78;2.30;;;7.60;99.90;;;;;;5002299;28;20227;-71
2023/12/31 04:30:20;;;;;;;3.45;2.35;;;7.60;99.90;;;;;;5016028;28;20049;-71
2023/12/31 04:32:46;;;;;;;4.03;2.10;;;7.60;99.90;;;;;;4985951;28;20792;-71
2023/12/31 04:35:12;;;;;;;3.28;2.45;;;7.60;99.90;;;;;;4987040;28;20117;-71
2023/12/31 04:37:37;;;;;;;3.80;2.25;;;7.60;99.90;;;;;;4984213;28;20058;-71
2023/12/31 04:40:05;;;;;;;3.78;2.60;;;7.60;99.90;;;;;;4988712;28;20046;-71
2023/12/31 04:42:30;;;;;;;3.35;2.50;;;7.60;99.90;;;;;;5020533;28;20551;-71
2023/12/31 04:44:59;;;;;;;3.92;2.50;;;7.60;99.90;;;;;;4995522;28;20041;-71
2023/12/31 04:47:25;;;;;;;3.08;2.35;;;7.60;99.90;;;;;;5000812;28;20080;-71
2023/12/31 04:49:50;;;;;;;4.00;2.58;;;7.60;99.90;;;;;;5009781;28;20468;-71
2023/12/31 04:52:16;;;;;;;4.40;2.78;;;7.70;99.90;;;;;;5007769;28;20112;-71
2023/12/31 04:54:42;;;;;;;4.13;2.45;;;7.70;99.90;;;;;;5012942;28;20042;-71
2023/12/31 04:57:08;;;;;;;3.40;2.65;;;7.70;99.90;;;;;;4983804;28;20133;-71
2023/12/31 04:59:33;;;;;;;3.40;2.40;;;7.70;99.90;;;;;;4996299;28;20041;-71
2023/12/31 05:01:59;;;;;;;3.33;2.28;;;7.70;99.90;;;;;;4995701;28;20185;-71
2023/12/31 05:04:25;;;;;;;5.13;2.58;;;7.70;99.90;;;;;;4993544;28;20054;-71
2023/12/31 05:06:51;;;;;;;3.47;2.45;;;7.70;99.90;;;;;;4987315;28;20042;-71
2023/12/31 05:09:17;;;;;;;4.43;2.45;;;7.70;99.90;;;;;;4985208;28;20532;-71
2023/12/31 05:11:44;;;;;;;4.95;2.63;;;7.70;99.90;;;;;;5009855;28;20125;-71
2023/12/31 05:14:10;;;;;;;3.55;2.67;;;7.70;99.90;;;;;;4996098;28;20107;-71
2023/12/31 05:16:35;;;;;;;4.40;2.50;;;7.70;99.90;;;;;;4986244;28;20251;-71
2023/12/31 05:19:01;;;;;;;4.55;2.80;;;7.70;99.90;;;;;;4984977;28;20050;-71
2023/12/31 05:21:27;;;;;;;2.97;2.25;;;7.70;99.90;;;;;;4981487;28;20137;-71
2023/12/31 05:23:53;;;;;;;4.07;2.40;;;7.70;99.90;;;;;;4999025;28;20045;-71
2023/12/31 05:26:19;;;;;;;2.85;2.15;;;7.70;99.90;;;;;;4986522;28;20493;-71
2023/12/31 05:28:44;;;;;;;5.03;2.65;;;7.70;99.90;;;;;;4996825;28;20116;-71
2023/12/31 05:31:10;;;;;;;5.30;2.63;;;7.70;99.90;;;;;;5009778;28;20484;-71
2023/12/31 05:33:36;;;;;;;4.53;2.70;;;7.80;99.90;;;;;;5003182;28;20044;-72
2023/12/31 05:36:03;;;;;;;4.18;2.67;;;7.70;99.90;;;;;;4984545;28;20060;-71
2023/12/31 05:38:28;;;;;;;4.65;2.60;;;7.70;99.90;;;;;;4993456;28;20038;-71
2023/12/31 05:40:57;;;;;;;3.92;2.90;;;7.70;99.90;;;;;;4991361;28;20072;-71
2023/12/31 05:43:23;;;;;;;6.43;2.78;;;7.70;99.90;;;;;;4996257;28;20384;-71
2023/12/31 05:45:48;;;;;;;3.83;2.70;;;7.70;99.90;;;;;;4993804;28;20042;-71
2023/12/31 05:48:14;;;;;;;4.43;2.70;;;7.70;99.90;;;;;;4994335;28;20041;-71
2023/12/31 05:50:40;;;;;;;3.45;2.78;;;7.70;99.90;;;;;;5002536;28;20033;-71
2023/12/31 05:53:06;;;;;;;4.38;2.80;;;7.70;99.90;;;;;;4987315;28;20492;-71
2023/12/31 05:55:31;;;;;;;2.70;2.40;;;7.70;99.90;;;;;;4987882;28;20073;-71
2023/12/31 05:57:58;;;;;;;4.22;2.65;;;7.70;99.90;;;;;;4987523;28;20074;-71
2023/12/31 06:00:24;;;;;;;3.75;2.70;;;7.80;99.90;;;;;;5027595;28;20077;-71
2023/12/31 06:02:50;;;;;;;4.15;3.00;;;7.80;99.90;;;;;;4998662;28;20094;-71
2023/12/31 06:05:17;;;;;;;4.30;2.97;;;7.80;99.90;;;;;;5000681;28;20049;-71
2023/12/31 06:07:43;;;;;;;3.40;2.58;;;7.80;99.90;;;;;;5019983;28;20041;-71
2023/12/31 06:10:09;;;;;;;4.53;2.90;;;7.90;99.90;;;;;;5002684;28;20045;-71
2023/12/31 06:12:35;;;;;;;3.42;2.60;;;7.80;99.90;;;;;;4993998;28;20050;-71
2023/12/31 06:15:06;;;;;;;5.57;2.88;;;7.80;99.90;;;;;;4993351;28;20060;-71
2023/12/31 06:17:35;;;;;;;4.00;2.70;;;7.90;99.90;;;;;;4992139;28;20074;-71
2023/12/31 06:20:02;;;;;;;5.88;3.00;;;7.90;99.90;;;;;;4996507;28;20061;-71
2023/12/31 06:22:28;;;;;;;5.57;3.17;;;7.90;99.90;;;;;;4994897;28;20048;-72
2023/12/31 06:24:54;;;;;;;4.22;3.05;;;7.90;99.90;;;;;;5029133;28;20042;-71
2023/12/31 06:27:19;;;;;;;5.10;2.88;;;7.90;99.90;;;;;;4993814;28;20129;-71
2023/12/31 06:29:45;;;;;;;3.70;2.63;;;7.90;99.90;;;;;;4998019;28;20119;-72
2023/12/31 06:32:11;;;;;;;4.00;3.13;;;7.90;99.90;;;;;;4993948;28;20349;-71
2023/12/31 06:34:37;;;;;;;4.32;2.80;;;7.90;99.90;;;;;;4999707;28;20049;-71
2023/12/31 06:37:03;;;;;;;4.28;2.92;;;7.90;99.90;;;;;;4997112;28;20873;-71
2023/12/31 06:39:29;;;;;;;4.38;3.17;;;7.90;99.90;;;;;;4980979;28;20073;-71
2023/12/31 06:41:55;;;;;;;4.10;2.60;;;8.00;99.90;;;;;;4993398;28;20064;-71
2023/12/31 06:44:21;;;;;;;4.75;3.10;;;8.00;99.90;;;;;;4995119;28;20064;-71
2023/12/31 06:46:47;;;;;;;5.63;3.10;;;8.00;99.90;;;;;;4985444;28;20046;-71
2023/12/31 06:49:13;;;;;;;4.97;2.85;;;8.00;99.90;;;;;;4983362;28;20040;-71
2023/12/31 06:51:39;;;;;;;3.75;2.65;;;8.00;99.90;;;;;;4996097;28;20034;-71
2023/12/31 06:54:05;;;;;;;3.72;2.95;;;8.00;99.90;;;;;;4994493;28;20046;-71
2023/12/31 06:56:31;;;;;;;4.05;2.85;;;8.00;99.90;;;;;;4995869;28;20046;-71
2023/12/31 06:58:56;;;;;;;4.85;2.58;;;8.00;99.90;;;;;;4982737;28;20048;-71
2023/12/31 07:01:22;;;;;;;4.88;3.13;;;8.00;99.90;;;;;;4991768;28;20026;-71
2023/12/31 07:03:48;;;;;;;4.15;3.00;;;8.00;99.90;;;;;;4996724;28;20496;-71
2023/12/31 07:06:14;;;;;;;6.00;2.90;;;7.90;99.90;;;;;;4981497;28;20076;-71
2023/12/31 07:08:39;;;;;;;4.25;2.85;;;7.90;99.90;;;;;;4998542;28;20378;-71
2023/12/31 07:11:05;;;;;;;4.15;2.75;;;7.90;99.90;;;;;;5000581;28;20057;-71
2023/12/31 07:13:31;;;;;;;4.15;2.83;;;8.00;99.90;;;;;;5000802;28;20655;-71
2023/12/31 07:15:58;;;;;;;4.28;3.03;;;8.00;99.90;;;;;;4992637;28;20103;-71
2023/12/31 07:18:24;;;;;;;6.78;3.28;;;8.00;99.90;;;;;;4991870;28;20045;-71
2023/12/31 07:20:49;;;;;;;4.00;3.05;;;7.90;99.90;;;;;;4978000;28;20043;-71
2023/12/31 07:23:15;;;;;;;3.53;2.60;;;7.90;99.90;;;;;;4997615;28;20514;-71
2023/12/31 07:25:41;;;;;;;3.50;2.65;;;7.90;99.90;;;;;;4998543;28;20046;-71
2023/12/31 07:28:07;;;;;;;4.63;3.13;;;8.00;99.90;;;;;;4984689;28;20136;-71
2023/12/31 07:30:32;;;;;;;5.13;2.92;;;8.00;99.90;;;;;;4978257;28;20046;-71
2023/12/31 07:32:58;;;;;;;5.57;3.13;;;8.00;99.90;;;;;;4986243;28;20284;-71
2023/12/31 07:35:24;;;;;;;5.45;3.17;;;8.00;99.90;;;;;;4990870;28;20038;-71
2023/12/31 07:37:50;;;;;;;4.90;2.97;;;8.10;99.90;;;;;;4997698;28;20057;-71
2023/12/31 07:40:16;;;;;;;4.82;2.80;;;8.10;99.90;;;;;;4984971;28;20081;-72
2023/12/31 07:42:42;;;;;;;3.97;2.80;;;8.10;99.90;;;;;;5009657;28;20048;-71
2023/12/31 07:45:08;;;;;;;4.80;3.05;;;8.10;99.90;;;;;;5023703;28;20188;-71
2023/12/31 07:47:35;;;;;;;4.07;3.10;;;8.10;99.90;;;;;;5014700;28;20485;-71
2023/12/31 07:50:07;;;;;;;7.55;3.08;;;8.10;99.90;;;;;;5024519;28;20508;-71
2023/12/31 07:52:33;;;;;;;4.47;3.03;;;8.10;99.90;;;;;;4990670;28;20049;-71
2023/12/31 07:54:59;;;;;;;4.45;3.10;;;8.20;99.90;;;;;;5005430;28;20054;-72
2023/12/31 07:57:25;;;;;;;5.57;3.10;;;8.20;99.90;;;;;;4999900;28;20049;-71
2023/12/31 07:59:51;;;;;;;4.30;3.10;;;8.20;99.90;;;;;;4997574;28;20080;-71
2023/12/31 08:02:16;;;;;;;7.03;3.17;;;8.20;99.90;;;;;;4996151;28;20128;-71
2023/12/31 08:04:42;;;;;;;5.75;3.22;;;8.20;99.90;;;;;;4998157;28;20038;-72
2023/12/31 08:07:08;;;;;;;5.53;3.30;;;8.20;99.90;;;;;;5033986;28;20451;-71
2023/12/31 08:09:34;;;;;;;4.38;2.97;;;8.20;99.90;;;;;;5006655;28;20050;-71
2023/12/31 08:12:00;;;;;;;5.53;3.05;;;8.30;99.90;;;;;;4986411;28;20048;-71
2023/12/31 08:14:26;;;;;;;4.25;3.17;;;8.30;99.90;;;;;;4991467;28;20076;-71
2023/12/31 08:16:52;;;;;;;4.70;3.00;;;8.20;99.90;;;;;;4993027;28;20046;-71
2023/12/31 08:19:17;;;;;;;5.50;3.05;;;8.30;99.90;;;;;;4999519;28;20042;-71
2023/12/31 08:21:43;;;;;;;3.50;2.90;;;8.30;99.90;;;;;;5003610;28;20523;-71
2023/12/31 08:24:09;;;;;;;4.43;2.95;;;8.30;99.90;;;;;;4998923;28;20046;-71
2023/12/31 08:26:36;;;;;;;4.07;3.08;;;8.30;99.90;;;;;;4989715;28;20053;-71
2023/12/31 08:29:02;;;;;;;4.85;3.00;;;8.40;99.90;;;;;;5001544;28;20108;-71
2023/12/31 08:31:28;;;;;;;3.20;2.42;;;8.30;99.90;;;;;;4998748;28;20498;-71
2023/12/31 08:33:54;;;;;;;3.90;3.00;;;8.30;99.90;;;;;;4993187;28;20260;-71
2023/12/31 08:36:20;;;;;;;4.20;2.88;;;8.40;99.90;;;;;;4992423;28;20063;-71
2023/12/31 08:38:45;;;;;;;4.65;3.17;;;8.40;99.90;;;;;;4999655;28;20146;-72
2023/12/31 08:41:11;;;;;;;3.88;3.00;;;8.30;99.90;;;;;;5003238;28;20055;-71
2023/12/31 08:43:37;;;;;;;3.60;2.88;;;8.40;99.90;;;;;;5016215;28;20034;-71
2023/12/31 08:46:03;;;;;;;5.70;3.22;;;8.40;99.90;;;;;;5000531;28;20040;-72
2023/12/31 08:48:29;;;;;;;3.42;2.83;;;8.40;99.90;;;;;;5014755;28;20556;-71
2023/12/31 08:50:55;;;;;;;3.63;2.88;;;8.40;99.90;;;;;;5022123;28;20117;-71
2023/12/31 08:53:21;;;;;;;4.50;3.10;;;8.40;99.90;;;;;;5004909;28;20559;-71
2023/12/31 08:55:51;;;;;;;5.30;3.13;;;8.40;99.90;;;;;;5000700;28;20089;-71
2023/12/31 08:58:17;;;;;;;3.70;2.95;;;8.50;99.90;;;;;;4998855;28;20117;-71
2023/12/31 09:00:43;;;;;;;5.10;3.33;;;8.50;99.90;;;;;;5000356;28;20042;-71
2023/12/31 09:03:09;;;;;;;3.28;2.65;;;8.50;99.90;;;;;;5002805;28;20249;-72
2023/12/31 09:05:35;;;;;;;4.97;2.90;;;8.60;99.90;;;;;;4996562;28;21023;-71
2023/12/31 09:08:02;;;;;;;3.97;2.80;;;8.60;99.90;;;;;;4982077;28;20094;-72
2023/12/31 09:10:28;;;;;;;4.32;3.10;;;8.60;99.90;;;;;;5032641;28;20046;-71
2023/12/31 09:12:54;;;;;;;4.22;3.00;;;8.60;99.90;;;;;;4994346;28;20052;-72
2023/12/31 09:15:19;;;;;;;4.68;3.00;;;8.60;99.90;;;;;;5031401;28;20038;-72
2023/12/31 09:17:45;;;;;;;6.80;3.90;;;8.70;99.90;;;;;;4984531;28;20046;-71
2023/12/31 09:20:11;;;;;;;4.53;2.80;;;8.70;99.90;;;;;;5030015;28;20038;-71
2023/12/31 09:22:37;;;;;;;4.38;2.50;;;8.70;99.90;;;;;;5021954;28;20119;-72
2023/12/31 09:25:05;;;;;;;3.60;2.80;;;8.70;99.90;;;;;;4997017;28;20038;-72
2023/12/31 09:27:32;;;;;;;4.50;2.72;;;8.70;99.90;;;;;;5004305;28;20392;-72
2023/12/31 09:29:58;;;;;;;4.00;2.95;;;8.70;99.90;;;;;;5001270;28;20450;-72
2023/12/31 09:32:24;;;;;;;4.88;3.00;;;8.70;99.90;;;;;;4999183;28;20095;-72
2023/12/31 09:34:50;;;;;;;4.70;2.83;;;8.70;99.90;;;;;;5004530;28;20046;-72
2023/12/31 09:37:19;;;;;;;3.58;2.88;;;8.70;99.90;;;;;;5003336;28;20540;-71
2023/12/31 09:39:48;;;;;;;4.30;2.97;;;8.70;99.90;;;;;;4997786;28;20042;-72
2023/12/31 09:42:20;;;;;;;4.65;2.88;;;8.80;99.90;;;;;;5030250;28;20038;-72
2023/12/31 09:44:49;;;;;;;5.45;3.22;;;8.80;99.90;;;;;;4990325;28;20038;-72
2023/12/31 09:47:14;;;;;;;6.13;3.28;;;8.80;99.90;;;;;;4986944;28;20447;-72
2023/12/31 09:49:41;;;;;;;7.45;3.00;;;8.90;99.90;;;;;;5005544;28;20051;-72
2023/12/31 09:52:08;;;;;;;3.58;2.90;;;8.90;99.90;;;;;;4999130;28;20131;-71
2023/12/31 09:54:39;;;;;;;3.97;2.60;;;9.00;99.90;;;;;;4979691;28;20536;-71
2023/12/31 09:57:06;;;;;;;5.05;3.13;;;9.00;99.90;;;;;;4998849;28;20364;-72
2023/12/31 09:59:32;;;;;;;3.67;2.97;;;9.00;99.90;;;;;;4983130;28;20039;-71
2023/12/31 10:02:06;;;;;;;4.82;3.00;;;9.10;99.90;;;;;;4993438;28;20045;-72
2023/12/31 10:04:32;;;;;;;3.33;2.70;;;9.10;99.90;;;;;;5004695;28;20521;-72
2023/12/31 10:06:58;;;;;;;9.13;3.03;;;9.10;99.90;;;;;;4983158;28;20524;-72
2023/12/31 10:09:28;;;;;;;3.50;2.72;;;9.10;99.90;;;;;;4995585;28;20049;-72
2023/12/31 10:11:54;;;;;;;4.05;3.00;;;9.10;99.90;;;;;;5004366;28;20037;-71
2023/12/31 10:14:21;;;;;;;6.18;3.15;;;9.20;99.90;;;;;;5033738;28;20073;-71
2023/12/31 10:16:47;;;;;;;4.35;2.83;;;9.20;99.90;;;;;;5030209;28;20049;-72
2023/12/31 10:19:14;;;;;;;3.20;2.85;;;9.20;99.90;;;;;;5018240;28;20041;-72
2023/12/31 10:21:41;;;;;;;4.70;3.17;;;9.20;99.90;;;;;;4999607;28;20128;-71
2023/12/31 10:24:07;;;;;;;7.15;3.20;;;9.20;99.90;;;;;;5000945;28;20095;-71
2023/12/31 10:26:34;;;;;;;5.20;3.08;;;9.30;99.90;;;;;;4979809;28;20052;-72
2023/12/31 10:29:00;;;;;;;5.15;3.55;;;9.40;99.90;;;;;;4995050;28;20038;-72
2023/12/31 10:31:26;;;;;;;3.88;2.90;;;9.50;99.90;;;;;;4995975;28;20378;-72
2023/12/31 10:33:52;;;;;;;5.05;3.30;;;9.50;99.90;;;;;;4991352;28;20053;-72
2023/12/31 10:36:24;;;;;;;4.95;3.40;;;9.50;99.90;;;;;;5020696;28;20072;-71
2023/12/31 10:38:51;;;;;;;5.05;3.30;;;9.60;99.90;;;;;;5004273;28;20395;-72
2023/12/31 10:41:22;;;;;;;4.35;3.17;;;9.60;99.90;;;;;;4995758;28;20046;-72
2023/12/31 10:43:49;;;;;;;3.97;3.10;;;9.60;99.90;;;;;;4990202;28;20071;-72
2023/12/31 10:46:16;;;;;;;4.10;3.20;;;9.60;99.90;;;;;;5011369;28;20707;-72
2023/12/31 10:48:48;;;;;;;6.20;2.95;;;9.60;99.90;;;;;;4994253;28;20151;-72
2023/12/31 10:51:23;;;;;;;4.53;3.13;;;9.60;99.90;;;;;;4992811;28;20053;-72
2023/12/31 10:53:55;;;;;;;4.32;2.92;;;9.70;99.90;;;;;;4999484;28;20131;-72
2023/12/31 10:56:21;;;;;;;4.60;3.47;;;9.70;99.90;;;;;;4998278;28;20408;-72
2023/12/31 10:58:47;;;;;;;4.85;4.00;;;9.80;99.90;;;;;;4995046;28;20299;-72
2023/12/31 11:01:16;;;;;;;5.20;3.40;;;9.80;99.90;;;;;;4981895;28;20432;-72
2023/12/31 11:03:43;;;;;;;6.82;3.58;;;9.80;99.90;;;;;;4995517;28;20515;-72
2023/12/31 11:06:10;;;;;;;4.25;3.50;;;9.80;99.90;;;;;;4994534;28;20552;-72
2023/12/31 11:08:40;;;;;;;5.07;3.72;;;9.80;99.90;;;;;;4998937;28;20116;-72
2023/12/31 11:11:08;;;;;;;5.60;3.80;;;9.80;99.90;;;;;;4976548;28;20054;-71
2023/12/31 11:13:38;;;;;;;6.82;4.03;;;9.70;99.90;;;;;;4978997;28;20045;-72
2023/12/31 11:16:06;;;;;;;5.35;3.95;;;9.70;99.90;;;;;;4997837;28;20053;-71
2023/12/31 11:19:14;;;;;;;6.45;3.83;;;9.60;99.90;;;;;;4994016;28;20208;-71
2023/12/31 11:21:48;;;;;;;5.10;3.50;;;9.50;99.90;;;;;;4966016;28;20041;-71
2023/12/31 11:24:18;;;;;;;5.03;3.83;;;9.40;99.90;;;;;;4993797;28;20061;-71
2023/12/31 11:27:02;;;;;;;5.15;3.80;;;9.40;99.90;;;;;;4985454;28;20495;-71
2023/12/31 11:29:28;;;;;;;4.95;3.83;;;9.30;99.90;;;;;;4993047;28;20432;-71
2023/12/31 11:31:53;;;;;;;6.82;3.92;;;9.30;99.90;;;;;;4999523;28;20369;-71
2023/12/31 11:34:19;;;;;;;11.98;7.10;;;9.20;99.90;;;;;;4992023;28;20185;-71
2023/12/31 11:36:45;;;;;;;9.60;6.63;;;9.20;99.90;;;;;;5024305;28;20398;-71
2023/12/31 11:39:14;;;;;;;9.63;5.70;;;9.10;99.90;;;;;;4985300;28;20045;-71
2023/12/31 11:41:45;;;;;;;4.97;4.10;;;9.10;99.90;;;;;;4996547;28;20045;-71
2023/12/31 11:44:33;;;;;;;5.00;3.70;;;9.00;99.90;;;;;;5033693;28;20512;-71
2023/12/31 11:46:59;;;;;;;5.57;1.80;;;8.90;99.90;;;;;;5004533;28;20073;-71
2023/12/31 11:49:25;;;;;;;2.25;1.60;;;8.50;99.90;;;;;;4989534;28;20123;-71
2023/12/31 11:51:58;;;;;;;1.70;1.60;;;8.40;99.90;;;;;;5004112;28;20046;-71
2023/12/31 11:54:34;;;;;;;4.38;1.73;;;8.40;99.90;;;;;;5013778;28;20473;-71
2023/12/31 11:57:02;;;;;;;3.25;1.90;;;8.40;99.90;;;;;;5030371;28;20038;-71
2023/12/31 11:59:27;;;;;;;1.95;1.65;;;8.40;99.90;;;;;;5003017;28;20030;-71
2023/12/31 12:01:54;;;;;;;2.20;1.58;;;8.40;99.90;;;;;;5003819;28;20053;-71
2023/12/31 12:04:20;;;;;;;2.85;1.92;;;8.30;99.90;;;;;;5001062;28;20504;-71
2023/12/31 12:06:46;;;;;;;3.22;1.75;;;8.30;99.90;;;;;;4984606;28;20485;-72
2023/12/31 12:09:12;;;;;;;2.60;1.75;;;8.30;99.90;;;;;;5000008;28;20057;-71
2023/12/31 12:11:43;;;;;;;2.17;1.60;;;8.30;99.90;;;;;;5000347;28;20073;-71
2023/12/31 12:14:12;;;;;;;2.78;1.38;;;8.20;99.90;;;;;;5003252;28;20097;-71
2023/12/31 12:16:40;;;;;;;2.67;1.70;;;8.30;99.90;;;;;;5000885;28;20080;-72
2023/12/31 12:19:06;;;;;;;3.05;1.70;;;8.30;99.90;;;;;;4987951;28;20503;-71
2023/12/31 12:21:32;;;;;;;5.55;2.95;;;8.30;99.90;;;;;;5000299;28;20052;-71
2023/12/31 12:23:58;;;;;;;3.10;2.40;;;8.30;99.90;;;;;;5001320;28;20454;-71
2023/12/31 12:26:25;;;;;;;3.75;2.30;;;8.40;99.90;;;;;;5011234;28;20046;-71
2023/12/31 12:28:53;;;;;;;3.35;2.30;;;8.70;99.90;;;;;;5002178;28;20061;-71
2023/12/31 12:31:19;;;;;;;3.47;1.80;;;9.00;99.90;;;;;;5000942;28;20049;-72
2023/12/31 12:33:53;;;;;;;3.72;2.47;;;9.20;99.90;;;;;;5000409;28;20121;-72
2023/12/31 12:36:22;;;;;;;6.00;3.80;;;9.30;99.90;;;;;;4997055;28;20056;-72
2023/12/31 12:38:48;;;;;;;2.92;2.10;;;9.40;99.90;;;;;;4991937;28;20075;-71
2023/12/31 12:41:21;;;;;;;4.85;2.58;;;9.50;99.90;;;;;;5009343;28;21189;-72
2023/12/31 12:43:59;;;;;;;3.25;1.92;;;9.30;99.90;;;;;;4998917;28;20041;-72
2023/12/31 12:46:27;;;;;;;4.20;2.50;;;9.40;99.90;;;;;;4986224;28;20314;-72
2023/12/31 12:48:52;;;;;;;4.45;1.85;;;9.40;99.90;;;;;;4999210;28;20050;-72
2023/12/31 12:51:18;;;;;;;3.58;2.00;;;9.50;99.90;;;;;;4993869;28;20033;-72
2023/12/31 12:53:44;;;;;;;4.30;2.00;;;9.70;99.90;;;;;;4994254;28;20497;-72